Zelenodol'sk, Russia
Current Conditions -  °F | °C
As of 11:00 PM on Friday 31 Oct 2014 (Local Time) from UWKD Reporting Station
Clear Clear  
Wind Chill: 32°   Ceiling: Unl
Heat Index: 36°   Visibility: 6mi
Dew Point: 30°   Wind: 4mph
Humidity: 81%   Direction: 260°W
Pressure: 29.94"   Gusts: NA
Location:  55.85°N, 48.5°E
Report Text: UWKD 312000Z 26002MPS CAVOK 02/M01 Q1014 R29/CLRD60 NOSIG RMKQFE749/0999
Loading
Personal Weather Stations






























Interactive Weather Map
Tropical Storm Tracking
New forecast layout! Learn more

10-Day Weather Forecast

Advertisements
Track Severe Weather on mobile